Time;durP1;ratioP1;P1;durP2;ratioP2;P2;SDS_P1;SDS_P2;PMS_P1;PMS_P2;Temp;Humidity;BMP_temperature;BMP_pressure;BME280_temperature;BME280_humidity;BME280_pressure;Samples;Min_cycle;Max_cycle;Signal;HPM_P1;HPM_P2
2022/09/04 00:01:54;;;;;;;16.50;9.38;;;;;;;15.52;100.00;100151.40;1668786;86;21007;-72
2022/09/04 00:04:49;;;;;;;17.75;10.20;;;;;;;15.43;100.00;100155.63;1668610;85;21058;-72
2022/09/04 00:07:47;;;;;;;19.67;10.18;;;;;;;15.35;100.00;100152.91;1666054;85;21140;-71
2022/09/04 00:10:31;;;;;;;17.10;8.68;;;;;;;15.32;100.00;100159.36;1664775;85;20986;-70
2022/09/04 00:13:09;;;;;;;16.20;9.60;;;;;;;15.26;100.00;100159.33;1663495;86;20996;-70
2022/09/04 00:15:47;;;;;;;14.55;8.85;;;;;;;15.21;100.00;100159.53;1664252;85;21019;-72
2022/09/04 00:18:42;;;;;;;18.77;9.70;;;;;;;15.14;100.00;100166.17;1663530;86;21012;-70
2022/09/04 00:21:24;;;;;;;15.00;10.45;;;;;;;15.11;100.00;100161.30;1614441;86;21128;-71
2022/09/04 00:24:16;;;;;;;12.88;9.60;;;;;;;15.07;100.00;100166.70;1664479;85;21064;-70
2022/09/04 00:26:58;;;;;;;14.65;9.70;;;;;;;15.05;100.00;100167.61;1664541;85;21046;-70
2022/09/04 00:29:40;;;;;;;18.00;9.00;;;;;;;15.04;100.00;100168.20;1664277;86;21038;-71
2022/09/04 00:32:18;;;;;;;14.45;9.28;;;;;;;15.02;100.00;100163.55;1664171;86;21539;-70
2022/09/04 00:35:20;;;;;;;16.45;9.73;;;;;;;14.96;100.00;100162.92;1664654;85;21985;-70
2022/09/04 00:38:16;;;;;;;21.33;10.58;;;;;;;15.01;100.00;100165.28;1664618;85;20955;-70
2022/09/04 00:41:16;;;;;;;14.65;9.80;;;;;;;14.95;100.00;100164.08;1628059;86;21560;-69
2022/09/04 00:44:19;;;;;;;14.83;9.85;;;;;;;14.91;100.00;100162.31;1663495;86;21035;-69
2022/09/04 00:47:14;;;;;;;12.33;9.15;;;;;;;14.82;100.00;100170.08;1664271;86;20971;-70
2022/09/04 00:50:10;;;;;;;14.70;9.35;;;;;;;14.76;100.00;100167.23;1664273;86;21605;-72
2022/09/04 00:53:08;;;;;;;16.27;9.88;;;;;;;14.72;100.00;100170.45;1662180;86;20995;-69
2022/09/04 00:55:52;;;;;;;16.00;10.38;;;;;;;14.70;100.00;100172.17;1658373;86;21004;-70
2022/09/04 00:58:53;;;;;;;22.35;11.08;;;;;;;14.65;100.00;100165.41;1656539;86;20945;-70
2022/09/04 01:01:25;;;;;;;18.57;10.32;;;;;;;14.65;100.00;100167.36;1658151;86;21068;-71
2022/09/04 01:04:15;;;;;;;19.65;12.95;;;;;;;14.62;100.00;100163.28;1655868;86;21035;-70
2022/09/04 01:07:03;;;;;;;18.50;11.22;;;;;;;14.50;100.00;100162.59;1658883;84;20933;-72
2022/09/04 01:09:48;;;;;;;20.23;10.88;;;;;;;14.44;100.00;100161.97;1647789;86;21529;-71
2022/09/04 01:12:38;;;;;;;19.67;9.55;;;;;;;14.41;100.00;100165.97;1648318;87;21075;-70
2022/09/04 01:15:17;;;;;;;17.80;10.48;;;;;;;14.42;100.00;100165.64;1648194;87;21504;-71
2022/09/04 01:18:14;;;;;;;17.37;10.00;;;;;;;14.44;100.00;100168.08;1648272;87;22091;-71
2022/09/04 01:21:06;;;;;;;14.18;9.00;;;;;;;14.47;100.00;100164.64;1648212;87;20957;-70
2022/09/04 01:24:18;;;;;;;27.90;10.75;;;;;;;14.47;100.00;100171.57;1648396;86;21044;-70
2022/09/04 01:27:17;;;;;;;15.83;10.30;;;;;;;14.45;100.00;100171.11;1636298;86;21087;-69
2022/09/04 01:29:56;;;;;;;20.75;11.28;;;;;;;14.35;100.00;100168.92;1636510;87;21110;-70
2022/09/04 01:33:05;;;;;;;20.37;11.12;;;;;;;14.26;100.00;100163.98;1636310;87;21245;-72
2022/09/04 01:35:58;;;;;;;25.62;12.13;;;;;;;14.22;100.00;100164.39;1636489;87;20919;-71
2022/09/04 01:38:57;;;;;;;15.72;10.35;;;;;;;14.21;100.00;100164.16;1660642;86;21007;-71
2022/09/04 01:41:33;;;;;;;17.25;11.05;;;;;;;14.27;100.00;100164.22;1649618;87;21000;-70
2022/09/04 01:44:02;;;;;;;20.75;11.38;;;;;;;14.22;100.00;100162.44;1650758;87;21567;-70
2022/09/04 01:46:53;;;;;;;22.13;11.93;;;;;;;14.19;100.00;100153.38;1650738;86;21442;-70
2022/09/04 01:49:37;;;;;;;17.80;10.80;;;;;;;14.15;100.00;100151.03;1650735;86;20949;-71
2022/09/04 01:52:57;;;;;;;20.65;9.90;;;;;;;14.10;100.00;100158.95;1650614;86;21016;-72
2022/09/04 01:55:49;;;;;;;19.87;10.72;;;;;;;14.05;100.00;100154.97;1647736;86;20980;-71
2022/09/04 01:58:37;;;;;;;21.82;11.35;;;;;;;14.02;100.00;100154.81;1650812;86;20984;-71
2022/09/04 02:01:25;;;;;;;20.08;10.20;;;;;;;13.97;100.00;100149.67;1629429;87;21198;-72
2022/09/04 02:04:22;;;;;;;21.02;12.00;;;;;;;13.88;100.00;100150.27;1650337;86;21054;-71
2022/09/04 02:07:01;;;;;;;25.85;11.60;;;;;;;13.78;100.00;100152.80;1650716;87;21249;-72
2022/09/04 02:09:37;;;;;;;20.88;12.05;;;;;;;13.74;100.00;100152.63;1650649;87;21106;-70
2022/09/04 02:12:49;;;;;;;19.77;11.40;;;;;;;13.69;100.00;100154.74;1632741;87;21004;-70
2022/09/04 02:15:52;;;;;;;21.25;11.65;;;;;;;13.66;100.00;100158.16;1650749;87;21480;-70
2022/09/04 02:19:07;;;;;;;20.30;11.57;;;;;;;13.67;100.00;100155.07;1649938;86;21481;-70
2022/09/04 02:22:02;;;;;;;21.68;11.40;;;;;;;13.63;100.00;100159.62;1651289;86;21067;-70
2022/09/04 02:25:08;;;;;;;18.87;10.88;;;;;;;13.54;100.00;100156.05;1650339;86;21031;-71
2022/09/04 02:27:52;;;;;;;19.20;10.45;;;;;;;13.48;100.00;100152.02;1645965;87;21099;-71
2022/09/04 02:30:31;;;;;;;25.82;12.80;;;;;;;13.45;100.00;100151.84;1650646;86;22042;-70
2022/09/04 02:33:30;;;;;;;21.37;12.03;;;;;;;13.43;100.00;100157.71;1650872;86;21035;-70
2022/09/04 02:36:12;;;;;;;23.12;11.73;;;;;;;13.44;100.00;100159.92;1651258;86;21056;-71
2022/09/04 02:38:48;;;;;;;18.40;11.85;;;;;;;13.39;100.00;100156.16;1650688;86;21448;-73
2022/09/04 02:41:49;;;;;;;23.47;11.78;;;;;;;13.38;100.00;100152.33;1650787;87;21007;-70
2022/09/04 02:44:30;;;;;;;23.75;12.63;;;;;;;13.35;100.00;100151.05;1649795;86;21103;-70
2022/09/04 02:47:35;;;;;;;25.45;11.73;;;;;;;13.32;100.00;100157.23;1650828;87;21493;-70
2022/09/04 02:50:37;;;;;;;27.35;13.70;;;;;;;13.36;100.00;100156.81;1651061;86;21071;-71
2022/09/04 02:53:36;;;;;;;22.93;13.10;;;;;;;13.35;100.00;100162.67;1650851;87;21087;-71
2022/09/04 02:56:31;;;;;;;20.32;11.50;;;;;;;13.28;100.00;100160.38;1650868;87;20985;-71
2022/09/04 02:59:40;;;;;;;21.73;11.48;;;;;;;13.22;100.00;100163.06;1651139;87;21759;-71
2022/09/04 03:02:26;;;;;;;19.52;11.10;;;;;;;13.20;100.00;100162.56;1650769;86;21007;-72
2022/09/04 03:05:23;;;;;;;21.45;11.28;;;;;;;13.26;100.00;100164.03;1660328;86;21064;-71
2022/09/04 03:08:14;;;;;;;20.08;11.65;;;;;;;13.26;100.00;100162.09;1650772;86;20948;-70
2022/09/04 03:10:58;;;;;;;;;;;;;;;13.23;100.00;100166.06;1649901;87;21012;-71
2022/09/04 03:13:57;;;;;;;21.62;12.37;;;;;;;13.23;100.00;100166.06;1660463;86;21139;-71
2022/09/04 03:16:48;;;;;;;23.92;13.25;;;;;;;13.24;100.00;100162.16;1650775;86;21659;-70
2022/09/04 03:19:26;;;;;;;28.25;12.82;;;;;;;13.23;100.00;100168.83;1649050;86;21059;-70
2022/09/04 03:22:28;;;;;;;22.82;13.32;;;;;;;13.21;100.00;100165.01;1637606;86;21552;-67
2022/09/04 03:25:29;;;;;;;24.63;12.60;;;;;;;13.16;100.00;100163.77;1612500;87;21012;-70
2022/09/04 03:28:00;;;;;;;21.48;12.40;;;;;;;13.14;100.00;100165.48;1650957;86;20909;-70
2022/09/04 03:30:31;;;;;;;22.95;13.03;;;;;;;13.14;100.00;100168.25;1649929;86;20963;-71
2022/09/04 03:33:03;;;;;;;19.52;12.03;;;;;;;13.15;100.00;100171.84;1632876;86;21032;-71
2022/09/04 03:35:37;;;;;;;22.52;12.00;;;;;;;13.15;100.00;100167.09;1650708;87;20940;-69
2022/09/04 03:38:53;;;;;;;20.82;12.55;;;;;;;13.21;100.00;100171.10;1650560;87;21023;-72
2022/09/04 03:42:05;;;;;;;25.55;12.07;;;;;;;13.20;100.00;100172.25;1650697;86;21091;-70
2022/09/04 03:44:57;;;;;;;22.70;12.63;;;;;;;13.15;100.00;100178.17;1660763;85;21058;-70
2022/09/04 03:47:48;;;;;;;21.90;12.68;;;;;;;13.10;100.00;100180.28;1650976;86;21075;-70
2022/09/04 03:50:55;;;;;;;19.45;12.50;;;;;;;13.08;100.00;100185.32;1626385;87;20920;-70
2022/09/04 03:53:30;;;;;;;24.85;12.78;;;;;;;13.10;100.00;100176.94;1657555;86;20936;-70
2022/09/04 03:56:16;;;;;;;21.20;12.58;;;;;;;13.14;100.00;100175.73;1650807;86;20976;-70
2022/09/04 03:59:10;;;;;;;24.63;13.35;;;;;;;13.19;100.00;100177.52;1650775;86;21031;-72
2022/09/04 04:02:06;;;;;;;21.25;12.45;;;;;;;13.21;100.00;100178.02;1628896;87;21492;-69
2022/09/04 04:04:42;;;;;;;22.67;11.78;;;;;;;13.22;100.00;100179.08;1650977;86;20988;-70
2022/09/04 04:07:39;;;;;;;25.12;14.60;;;;;;;13.25;100.00;100178.46;1659125;86;21498;-69
2022/09/04 04:10:32;;;;;;;25.60;13.25;;;;;;;13.28;100.00;100179.75;1646944;86;21132;-71
2022/09/04 04:13:48;;;;;;;20.97;11.48;;;;;;;13.29;100.00;100184.14;1642311;87;20977;-71
2022/09/04 04:16:56;;;;;;;20.55;12.55;;;;;;;13.37;100.00;100189.46;1646613;86;20980;-72
2022/09/04 04:19:54;;;;;;;28.45;13.38;;;;;;;13.45;100.00;100191.42;1642884;87;20964;-71
2022/09/04 04:22:43;;;;;;;26.75;13.45;;;;;;;13.53;100.00;100197.34;1642440;87;21422;-72
2022/09/04 04:25:43;;;;;;;22.75;12.07;;;;;;;13.56;100.00;100200.25;1645955;86;21167;-70
2022/09/04 04:28:38;;;;;;;19.10;12.55;;;;;;;13.64;100.00;100205.56;1627173;87;21000;-70
2022/09/04 04:31:43;;;;;;;21.80;13.08;;;;;;;13.71;100.00;100214.77;1644996;87;21020;-72
2022/09/04 04:34:29;;;;;;;20.82;12.90;;;;;;;13.78;100.00;100216.50;1646342;86;20965;-70
2022/09/04 04:37:07;;;;;;;23.87;14.00;;;;;;;13.86;100.00;100215.69;1642739;87;21008;-71
2022/09/04 04:40:16;;;;;;;22.98;13.35;;;;;;;13.93;100.00;100211.59;1646510;86;21053;-71
2022/09/04 04:43:31;;;;;;;18.87;12.30;;;;;;;13.98;100.00;100214.20;1639140;86;21068;-71
2022/09/04 04:46:40;;;;;;;20.23;11.75;;;;;;;14.07;100.00;100215.03;1621286;87;20933;-72
2022/09/04 04:49:21;;;;;;;19.82;11.95;;;;;;;14.15;100.00;100216.16;1644031;87;21005;-70
2022/09/04 04:52:33;;;;;;;22.75;12.70;;;;;;;14.32;100.00;100215.88;1644353;87;20956;-71
2022/09/04 04:55:23;;;;;;;19.85;10.95;;;;;;;14.44;100.00;100220.19;1646318;87;21896;-71
2022/09/04 04:58:33;;;;;;;15.58;10.60;;;;;;;14.57;100.00;100221.69;1646164;87;20945;-70
2022/09/04 05:01:18;;;;;;;15.43;9.45;;;;;;;14.74;100.00;100222.21;1646483;87;20888;-71
2022/09/04 05:04:11;;;;;;;19.57;10.85;;;;;;;14.87;100.00;100220.98;1646188;87;21647;-69
2022/09/04 05:07:16;;;;;;;20.20;10.67;;;;;;;14.95;100.00;100222.34;1646807;87;20944;-70
2022/09/04 05:10:29;;;;;;;20.25;10.32;;;;;;;15.04;100.00;100219.53;1648775;86;21559;-71
2022/09/04 05:13:41;;;;;;;26.33;9.73;;;;;;;15.18;100.00;100226.81;1649054;86;21068;-71
2022/09/04 05:16:47;;;;;;;22.42;8.88;;;;;;;15.29;100.00;100230.83;1652819;85;21446;-70
2022/09/04 05:19:51;;;;;;;21.68;8.88;;;;;;;15.39;100.00;100231.58;1636295;86;20912;-71
2022/09/04 05:22:41;;;;;;;14.90;7.90;;;;;;;15.44;100.00;100234.16;1636939;86;20963;-69
2022/09/04 05:25:44;;;;;;;17.67;7.92;;;;;;;15.55;100.00;100237.37;1635283;86;21057;-72
2022/09/04 05:28:51;;;;;;;15.95;7.45;;;;;;;15.67;100.00;100234.69;1639775;86;21004;-68
2022/09/04 05:32:02;;;;;;;19.52;8.35;;;;;;;15.82;100.00;100229.67;1636669;86;21445;-71
2022/09/04 05:35:00;;;;;;;15.58;7.58;;;;;;;15.96;100.00;100241.91;1636556;87;21029;-68
2022/09/04 05:38:04;;;;;;;12.60;7.10;;;;;;;16.09;100.00;100244.78;1638808;86;21023;-72
2022/09/04 05:41:06;;;;;;;12.15;6.30;;;;;;;16.23;100.00;100238.35;1653097;86;20909;-71
2022/09/04 05:43:49;;;;;;;8.63;4.97;;;;;;;16.35;100.00;100246.50;1623082;87;21435;-72
2022/09/04 05:46:52;;;;;;;12.10;5.55;;;;;;;16.46;100.00;100244.11;1636458;87;20947;-70
2022/09/04 05:50:03;;;;;;;8.20;3.80;;;;;;;16.55;100.00;100250.38;1663124;86;20996;-71
2022/09/04 05:53:04;;;;;;;10.70;5.10;;;;;;;16.68;100.00;100254.03;1659341;86;21032;-72
2022/09/04 05:56:11;;;;;;;11.38;4.17;;;;;;;16.76;100.00;100255.08;1634813;87;21125;-71
2022/09/04 05:59:31;;;;;;;8.70;4.95;;;;;;;16.89;100.00;100255.91;1635740;86;20976;-72
2022/09/04 06:06:15;;;;;;;12.85;6.10;;;;;;;17.11;100.00;100262.24;1637786;85;21491;-71
2022/09/04 06:09:39;;;;;;;9.75;6.15;;;;;;;17.20;100.00;100265.72;1634461;86;20911;-71
2022/09/04 06:12:48;;;;;;;18.92;5.25;;;;;;;17.31;100.00;100268.04;1638470;85;21789;-71
2022/09/04 06:22:02;;;;;;;13.00;4.83;;;;;;;17.49;97.74;100263.03;1577328;91;21031;-70
2022/09/04 06:25:09;;;;;;;12.90;4.30;;;;;;;17.56;97.70;100272.20;1585328;89;21032;-71
2022/09/04 06:28:18;;;;;;;7.67;3.40;;;;;;;17.68;96.53;100269.98;1631389;86;21069;-72
2022/09/04 06:31:23;;;;;;;7.90;3.30;;;;;;;17.79;96.39;100271.72;1653227;86;21549;-69
2022/09/04 06:34:35;;;;;;;9.00;3.35;;;;;;;17.87;91.94;100274.95;1640071;87;21464;-72
2022/09/04 06:37:27;;;;;;;6.72;3.50;;;;;;;17.96;94.02;100277.00;1638830;87;21455;-71
2022/09/04 06:40:40;;;;;;;9.80;2.85;;;;;;;18.04;90.53;100280.83;1627700;85;21026;-71
2022/09/04 06:43:46;;;;;;;3.98;2.33;;;;;;;18.12;91.34;100279.05;1638643;86;21846;-70
2022/09/04 06:46:37;;;;;;;16.25;4.40;;;;;;;18.22;91.17;100268.83;1653165;86;21353;-73
2022/09/04 06:49:40;;;;;;;9.93;2.35;;;;;;;18.37;89.58;100266.46;1634996;87;21011;-74
2022/09/04 06:52:44;;;;;;;3.55;2.08;;;;;;;18.49;88.56;100275.36;1633870;86;20999;-70
2022/09/04 06:55:47;;;;;;;3.60;2.40;;;;;;;18.59;84.35;100281.81;1633427;87;20948;-69
2022/09/04 06:59:11;;;;;;;5.92;2.65;;;;;;;18.66;82.84;100292.36;1636389;86;21063;-70
2022/09/04 07:02:37;;;;;;;;;;;;;;;18.67;78.66;100290.36;1635225;87;21400;-71
2022/09/04 07:06:02;;;;;;;5.03;2.55;;;;;;;18.71;77.81;100284.31;1638430;86;20126;-73
2022/09/04 07:09:06;;;;;;;4.58;3.05;;;;;;;18.83;77.99;100284.22;1552967;92;21148;-71
2022/09/04 07:12:14;;;;;;;7.08;2.70;;;;;;;18.97;77.33;100285.19;1571595;90;21142;-71
2022/09/04 07:15:29;;;;;;;8.73;3.55;;;;;;;19.05;72.22;100292.36;1646048;86;21290;-71
2022/09/04 07:18:28;;;;;;;10.60;3.10;;;;;;;19.07;71.46;100287.23;1653472;86;20948;-71
2022/09/04 07:32:16;;;;;;;8.20;5.10;;;;;;;19.39;69.17;100282.23;1662049;86;21929;-69
2022/09/04 07:35:09;;;;;;;3.27;2.30;;;;;;;19.44;66.75;100281.38;1665563;86;21111;-72
2022/09/04 07:38:29;;;;;;;8.83;2.30;;;;;;;19.52;64.03;100287.12;1648991;86;21147;-72
2022/09/04 07:41:44;;;;;;;8.75;2.47;;;;;;;19.57;66.60;100286.84;1639008;86;21017;-74
2022/09/04 07:44:45;;;;;;;4.53;2.47;;;;;;;19.68;66.36;100279.54;1648312;86;21489;-71
2022/09/04 07:47:34;;;;;;;15.93;2.62;;;;;;;19.77;67.22;100285.51;1652999;86;21630;-71
2022/09/04 07:50:40;;;;;;;4.33;1.70;;;;;;;19.89;65.73;100281.17;1651924;86;21483;-74
2022/09/04 07:53:25;;;;;;;5.53;1.70;;;;;;;19.97;63.68;100285.53;1649512;85;21142;-72
2022/09/04 07:57:02;;;;;;;4.10;1.95;;;;;;;20.02;61.90;100278.25;1652879;86;20992;-70
2022/09/04 08:00:07;;;;;;;5.90;1.92;;;;;;;20.10;63.43;100271.66;1620304;86;20982;-71
2022/09/04 08:03:39;;;;;;;5.80;1.67;;;;;;;20.21;62.50;100286.46;1651640;86;21832;-74
2022/09/04 08:09:45;;;;;;;2.85;1.70;;;;;;;20.16;57.25;100287.57;1653338;86;20913;-70
2022/09/04 08:12:58;;;;;;;6.65;1.47;;;;;;;20.00;56.11;100290.38;1649825;85;21032;-71
2022/09/04 08:16:08;;;;;;;7.35;2.47;;;;;;;20.07;58.15;100287.78;1658003;86;20944;-71
2022/09/04 08:19:03;;;;;;;11.57;1.67;;;;;;;20.22;58.24;100293.08;1655978;86;21548;-68
2022/09/04 08:21:39;;;;;;;2.33;1.20;;;;;;;20.34;56.53;100302.50;1655731;86;21025;-69
2022/09/04 08:24:43;;;;;;;8.60;1.80;;;;;;;20.37;53.31;100294.79;1658049;86;21020;-70
2022/09/04 08:28:07;;;;;;;5.97;1.52;;;;;;;20.43;53.67;100301.13;1643824;86;20900;-70
2022/09/04 08:31:16;;;;;;;2.25;1.40;;;;;;;20.54;51.14;100301.31;1658446;86;21000;-71
2022/09/04 08:34:41;;;;;;;14.40;2.40;;;;;;;20.62;50.56;100300.88;1651950;86;20953;-72
2022/09/04 08:37:38;;;;;;;14.87;2.58;;;;;;;20.74;51.04;100295.70;1658331;86;21044;-74
2022/09/04 08:40:32;;;;;;;56.77;6.33;;;;;;;20.81;50.11;100295.03;1658457;86;21024;-71
2022/09/04 08:43:50;;;;;;;26.02;2.87;;;;;;;20.81;49.35;100295.03;1658426;86;20924;-71
2022/09/04 08:47:03;;;;;;;16.90;2.20;;;;;;;20.70;49.47;100294.81;1629700;86;21116;-73
2022/09/04 08:49:58;;;;;;;6.37;2.10;;;;;;;20.59;50.57;100299.41;1606299;88;21438;-70
2022/09/04 08:53:19;;;;;;;10.90;2.65;;;;;;;20.65;49.50;100294.53;1561072;88;21468;-72
2022/09/04 08:59:22;;;;;;;3.15;1.90;;;;;;;20.46;52.24;100287.55;1658814;86;20969;-69
2022/09/04 09:02:29;;;;;;;4.87;2.02;;;;;;;20.54;54.21;100283.70;1658466;86;21556;-72
2022/09/04 09:05:58;;;;;;;3.52;1.65;;;;;;;20.75;56.73;100282.50;1658518;86;21147;-75
2022/09/04 09:08:58;;;;;;;24.90;3.27;;;;;;;21.03;56.44;100282.22;1657714;86;21532;-72
2022/09/04 09:12:07;;;;;;;1.37;1.17;;;;;;;21.29;53.03;100285.44;1647971;86;21107;-71
2022/09/04 09:15:12;;;;;;;5.58;1.55;;;;;;;21.34;47.87;100285.73;1617456;85;20896;-73
2022/09/04 09:18:40;;;;;;;5.83;1.52;;;;;;;21.22;45.56;100286.75;1648765;86;20981;-73
2022/09/04 09:21:37;;;;;;;26.80;2.55;;;;;;;21.06;45.26;100288.27;1636586;87;21465;-71
2022/09/04 09:25:04;;;;;;;5.83;1.80;;;;;;;20.90;46.84;100287.18;1632910;87;21026;-71
2022/09/04 09:28:19;;;;;;;5.30;1.55;;;;;;;21.13;48.33;100287.81;1652816;86;20940;-72
2022/09/04 09:31:23;;;;;;;3.05;1.40;;;;;;;21.53;49.18;100287.61;1634951;86;20964;-73
2022/09/04 09:34:27;;;;;;;22.55;2.77;;;;;;;21.93;47.04;100279.00;1634995;86;21053;-73
2022/09/04 09:37:55;;;;;;;3.65;1.50;;;;;;;22.30;46.82;100272.65;1648902;86;20980;-72
2022/09/04 09:40:40;;;;;;;22.42;2.15;;;;;;;22.55;42.74;100267.11;1636432;86;21035;-72
2022/09/04 09:43:38;;;;;;;2.98;1.27;;;;;;;22.71;40.01;100267.70;1636464;87;21003;-72
2022/09/04 09:46:43;;;;;;;5.47;1.72;;;;;;;22.72;38.88;100275.55;1649159;86;21001;-71
2022/09/04 09:49:49;;;;;;;3.62;1.22;;;;;;;22.67;38.49;100273.88;1637616;86;20973;-72
2022/09/04 09:53:00;;;;;;;6.50;1.50;;;;;;;22.76;38.96;100270.75;1635436;87;20955;-74
2022/09/04 09:56:09;;;;;;;5.10;1.60;;;;;;;22.92;39.95;100270.52;1636468;86;20947;-72
2022/09/04 09:59:12;;;;;;;6.95;1.40;;;;;;;23.14;40.32;100272.11;1652809;85;21458;-72
2022/09/04 10:02:37;;;;;;;6.92;1.60;;;;;;;23.28;37.81;100272.83;1653477;86;20905;-70
2022/09/04 10:05:36;;;;;;;6.40;1.98;;;;;;;23.31;37.02;100276.84;1649543;86;20945;-70
2022/09/04 10:08:35;;;;;;;2.83;1.62;;;;;;;23.27;38.19;100271.81;1626367;87;21408;-72
2022/09/04 10:12:06;;;;;;;3.08;1.60;;;;;;;23.35;37.43;100267.23;1649737;86;20933;-71
2022/09/04 10:15:06;;;;;;;2.62;1.67;;;;;;;23.44;37.78;100264.73;1636481;86;20943;-73
2022/09/04 10:18:13;;;;;;;2.47;1.37;;;;;;;23.52;36.82;100269.21;1636162;86;20971;-70
2022/09/04 10:21:32;;;;;;;3.10;1.57;;;;;;;23.62;37.24;100271.06;1652291;85;20949;-71
2022/09/04 10:24:52;;;;;;;3.10;1.52;;;;;;;23.73;38.26;100267.70;1636699;86;21135;-72
2022/09/04 10:27:59;;;;;;;12.93;1.80;;;;;;;23.79;37.30;100269.55;1652792;86;20933;-72
2022/09/04 10:30:58;;;;;;;3.37;1.27;;;;;;;23.76;35.97;100268.35;1649879;86;21041;-72
2022/09/04 10:34:14;;;;;;;17.05;2.42;;;;;;;23.58;35.81;100266.81;1634971;86;20888;-70
2022/09/04 10:37:38;;;;;;;1.55;1.30;;;;;;;23.54;35.75;100263.98;1651348;86;20909;-71
2022/09/04 10:41:13;;;;;;;4.83;1.45;;;;;;;23.59;36.19;100264.23;1644385;86;20924;-72
2022/09/04 10:44:25;;;;;;;3.83;1.37;;;;;;;23.71;36.67;100264.50;1651386;86;20964;-72
2022/09/04 10:47:24;;;;;;;2.53;1.20;;;;;;;23.80;36.61;100270.56;1619955;86;21019;-69
2022/09/04 10:50:09;;;;;;;11.88;1.75;;;;;;;23.75;36.18;100275.16;1589684;88;21034;-73
2022/09/04 10:53:22;;;;;;;3.60;1.60;;;;;;;23.45;35.75;100279.81;1675855;84;20941;-72
2022/09/04 10:56:22;;;;;;;4.70;1.62;;;;;;;23.26;36.34;100276.62;1707579;83;21159;-73
2022/09/04 10:59:34;;;;;;;3.20;1.40;;;;;;;23.12;37.20;100271.68;1689668;83;20977;-70
2022/09/04 11:02:57;;;;;;;1.55;1.40;;;;;;;22.78;37.04;100273.99;1706044;84;20897;-74
2022/09/04 11:06:52;;;;;;;4.97;1.50;;;;;;;22.44;37.52;100275.41;1702841;84;21008;-71
2022/09/04 11:10:05;;;;;;;2.62;1.35;;;;;;;22.43;36.68;100266.78;1686147;84;21001;-73
2022/09/04 11:12:54;;;;;;;10.43;1.98;;;;;;;22.69;37.79;100269.30;1705289;83;21107;-74
2022/09/04 11:15:54;;;;;;;11.22;1.50;;;;;;;22.82;38.27;100273.44;1703794;84;20981;-75
2022/09/04 11:18:48;;;;;;;10.30;1.90;;;;;;;23.09;38.22;100259.81;1703592;84;21085;-69
2022/09/04 11:22:00;;;;;;;5.05;2.55;;;;;;;23.34;39.62;100256.38;1703931;83;20933;-74
2022/09/04 11:27:58;;;;;;;7.22;4.00;;;;;;;23.70;36.08;100260.87;1701971;84;21301;-74
2022/09/04 11:31:11;;;;;;;8.13;2.55;;;;;;;23.49;34.85;100256.53;1706000;84;20941;-73
2022/09/04 11:34:33;;;;;;;13.88;2.00;;;;;;;23.39;36.43;100257.42;1706098;84;20853;-74
2022/09/04 11:37:36;;;;;;;10.08;5.12;;;;;;;23.49;35.94;100264.34;1686172;84;20982;-72
2022/09/04 11:41:03;;;;;;;9.20;5.30;;;;;;;23.75;36.16;100249.05;1684360;85;21559;-72
2022/09/04 11:43:57;;;;;;;16.40;6.78;;;;;;;23.90;36.31;100244.30;1706058;83;21244;-72
2022/09/04 11:47:13;;;;;;;8.25;4.83;;;;;;;24.06;36.32;100244.77;1705704;83;20996;-74
2022/09/04 11:50:13;;;;;;;7.67;2.30;;;;;;;24.11;36.75;100237.13;1704252;83;21411;-72
2022/09/04 11:53:21;;;;;;;4.10;1.92;;;;;;;24.35;36.42;100239.86;1706344;83;20901;-74
2022/09/04 11:56:31;;;;;;;6.53;1.60;;;;;;;24.25;35.81;100252.70;1695836;84;20957;-74
2022/09/04 11:59:46;;;;;;;10.95;1.80;;;;;;;24.04;34.70;100253.39;1706102;83;22004;-71
2022/09/04 12:02:41;;;;;;;3.30;1.67;;;;;;;23.91;35.28;100249.53;1685638;84;20980;-73
2022/09/04 12:05:38;;;;;;;2.17;1.52;;;;;;;23.82;35.38;100247.08;1704034;83;21433;-72
2022/09/04 12:08:49;;;;;;;9.60;6.00;;;;;;;23.72;35.22;100249.23;1706381;82;20898;-72
2022/09/04 12:11:37;;;;;;;;;;;;;;;23.62;35.81;100247.16;1708969;83;20989;-72
2022/09/04 12:18:10;;;;;;;5.83;2.58;;;;;;;23.77;39.50;100239.01;1704878;83;21508;-72
2022/09/04 12:21:34;;;;;;;8.53;2.30;;;;;;;23.75;37.57;100237.19;1705999;83;20985;-72
2022/09/04 12:25:03;;;;;;;6.45;3.17;;;;;;;23.96;39.28;100232.87;1705194;83;21003;-74
2022/09/04 12:28:05;;;;;;;4.20;1.95;;;;;;;24.13;35.96;100231.33;1706311;83;21509;-72
2022/09/04 12:31:18;;;;;;;3.45;1.72;;;;;;;23.81;33.96;100240.44;1706232;83;21452;-72
2022/09/04 12:34:31;;;;;;;8.13;1.72;;;;;;;23.54;34.22;100238.67;1695953;83;21530;-71
2022/09/04 12:37:13;;;;;;;2.70;1.30;;;;;;;23.30;34.74;100239.48;1706063;84;21020;-74
2022/09/04 12:40:27;;;;;;;5.67;2.05;;;;;;;23.19;34.96;100242.23;1703038;84;21402;-73
2022/09/04 12:43:19;;;;;;;6.12;1.50;;;;;;;23.22;36.67;100235.02;1705959;82;21091;-72
2022/09/04 12:46:23;;;;;;;4.40;1.62;;;;;;;23.32;37.95;100234.29;1706401;83;21151;-71
2022/09/04 12:49:30;;;;;;;1.70;1.25;;;;;;;23.36;38.05;100237.13;1706694;82;20997;-71
2022/09/04 12:52:36;;;;;;;36.03;2.72;;;;;;;23.35;37.77;100230.69;1706135;83;21008;-73
2022/09/04 12:55:34;;;;;;;4.30;1.50;;;;;;;23.36;37.54;100231.51;1703485;83;20984;-72
2022/09/04 12:58:23;;;;;;;6.80;1.40;;;;;;;23.39;37.50;100227.13;1704426;83;20977;-72
2022/09/04 13:01:55;;;;;;;8.85;3.75;;;;;;;23.45;38.91;100217.95;1705977;83;20997;-72
2022/09/04 13:05:07;;;;;;;6.25;1.60;;;;;;;23.59;39.29;100221.43;1705847;83;20945;-75
2022/09/04 13:08:17;;;;;;;4.37;1.50;;;;;;;23.73;36.87;100218.48;1703313;83;21077;-77
2022/09/04 13:11:24;;;;;;;6.35;1.12;;;;;;;23.92;36.30;100224.41;1706214;83;21493;-70
2022/09/04 13:14:43;;;;;;;2.58;1.45;;;;;;;24.10;35.21;100226.50;1685697;84;21497;-73
2022/09/04 13:18:01;;;;;;;2.37;1.17;;;;;;;24.18;34.84;100218.90;1700228;84;21143;-73
2022/09/04 13:21:14;;;;;;;1.47;1.10;;;;;;;24.26;35.68;100221.15;1659167;86;21006;-75
2022/09/04 13:24:10;;;;;;;6.33;1.25;;;;;;;24.31;35.25;100225.77;1646020;86;21577;-74
2022/09/04 13:27:29;;;;;;;10.20;1.40;;;;;;;24.17;34.67;100220.90;1648853;85;21082;-71
2022/09/04 13:30:33;;;;;;;4.58;1.70;;;;;;;24.04;34.58;100224.66;1577704;90;21072;-72
2022/09/04 13:33:46;;;;;;;17.90;2.67;;;;;;;23.92;34.61;100222.19;1579171;90;21101;-71
2022/09/04 13:36:34;;;;;;;3.15;1.52;;;;;;;23.77;35.54;100229.16;1666605;85;20954;-75
2022/09/04 13:43:18;;;;;;;3.83;1.50;;;;;;;23.68;34.65;100228.11;1705938;83;20941;-71
2022/09/04 13:45:59;;;;;;;1.00;0.82;;;;;;;23.73;35.28;100230.36;1703347;84;21000;-71
2022/09/04 13:48:59;;;;;;;6.22;1.00;;;;;;;23.73;35.68;100224.73;1700902;83;21009;-73
2022/09/04 13:51:58;;;;;;;5.70;1.00;;;;;;;23.81;35.09;100222.16;1705078;83;21537;-72
2022/09/04 13:54:46;;;;;;;1.95;1.30;;;;;;;23.87;34.73;100226.78;1704771;83;20961;-70
2022/09/04 13:57:26;;;;;;;4.83;1.60;;;;;;;23.84;34.17;100225.58;1706098;83;21406;-71
2022/09/04 13:59:54;;;;;;;1.90;1.20;;;;;;;23.69;33.95;100229.74;1703558;83;21048;-70
2022/09/04 14:02:37;;;;;;;4.28;1.32;;;;;;;23.61;34.37;100226.66;1687410;84;20956;-71
2022/09/04 14:05:27;;;;;;;2.85;1.37;;;;;;;23.41;34.21;100223.33;1705954;83;20993;-73
2022/09/04 14:08:04;;;;;;;1.87;1.25;;;;;;;23.29;34.65;100225.23;1700162;83;20945;-74
2022/09/04 14:11:02;;;;;;;19.75;2.15;;;;;;;23.27;35.38;100231.84;1686738;83;21029;-75
2022/09/04 14:14:24;;;;;;;6.37;1.52;;;;;;;23.23;35.85;100235.24;1706031;83;21029;-74
2022/09/04 14:16:54;;;;;;;2.50;1.35;;;;;;;23.13;36.82;100235.97;1706020;83;21191;-74
2022/09/04 14:20:07;;;;;;;29.67;3.45;;;;;;;23.01;37.34;100237.89;1706052;82;20982;-73
2022/09/04 14:22:49;;;;;;;2.55;1.20;;;;;;;22.84;37.11;100235.92;1705736;82;20918;-71
2022/09/04 14:25:41;;;;;;;2.42;0.95;;;;;;;22.75;36.75;100236.86;1705772;83;21052;-75